Portada
METAR-TAF:

METAR-TAF

Aeroports :

Aeroport de Palma - Son Sant Joan

Palma, Espanya

latitud: 39-33N, longitud: 002-44E, altitud: 4 m

Observació

L'informe es va fer fa 29 minuts, a les 11:30 UTC
Vent 10 kt del Oest/Sud-Oest, variant entre Sud/Sud-Oest i Oest
Temperatura 16°C
Humitat 77%
Pressió 1023 hPa
Visibilitat 10 km o més
Núvols disperses a una alçada de 2000 ft

METAR: LEPA 271130Z 24010KT 210V280 9999 SCT020 16/12 Q1023 NOSIG

Hora: 12:59 (11:59 UTC)

Pronòstic

L'informe es va fer fa 59 minuts, a les 11:00 UTC
Pronòstic vàlid del 27 a les 12 UTC al 28 a les 12 UTC
Vent 12 kt del Oest/Sud-Oest
Visibilitat 10 km o més
Escasses núvols a una alçada de 3000 ft
Temporalment
l' 28 a les 04 UTC al 28 a les 09 UTC
Vent 4 kt amb direcció variable
Probabilitat 30% :
Temporalment
l' 28 a les 06 UTC al 28 a les 08 UTC
Visibilitat: 3000 m
boira en bancs

TAF: LEPA 271100Z 2712/2812 24012KT 9999 FEW030 TX16/2712Z TN09/2806Z TEMPO 2804/2809 VRB04KT PROB30 TEMPO 2806/2808 3000 BCFG

Observacions i pronòstics meteorològics de més de 4000 aeroports (METAR i TAF).

Les estacions disponibles són els punts grocs i vermells al mapa.

Posi el ratolí al punt desitjat per veure el nom de l'estació.

Feu clic per veure les observacions i els pronòstics meteorològics.

Per canviar el mapa: feu clic els botons verds amb una creu de color negre per apropar; al botó verd amb un guió per allunyar la imatge; o en les fletxes verdes per a mapes adjacents.


METAR-TAF: